Terminal Aerodrome Forecast
Issued by NWS

Home | Current Version | Previous Version | Text Only | Print | Product List | Glossary On
Versions: 1 2 3 4 5 6 7 8 9 10 11 12
000
FTUS46 KSEW 040520
TAFBLI
TAF
KBLI 040520Z 0406/0506 18005KT P6SM SCT045 BKN120
     FM040800 23007KT P6SM VCSH BKN045 OVC120
     FM041200 18007KT P6SM SCT015 OVC040
     FM041900 23007KT P6SM SCT025 BKN050
     FM050000 27006KT P6SM SCT040 BKN080 OVC200=

USA.gov is the U.S. government's official web portal to all federal, state and local government web resources and services.